createdAt,value
2022-07-25T00:00:57.396Z,0
2022-07-25T00:01:59.106Z,0
2022-07-25T00:02:56.515Z,0
2022-07-25T00:03:59.136Z,0
2022-07-25T00:04:56.973Z,0
2022-07-25T00:05:56.518Z,0
2022-07-25T00:06:56.244Z,0
2022-07-25T00:07:56.256Z,0
2022-07-25T00:08:56.245Z,0
2022-07-25T00:09:56.259Z,0
2022-07-25T00:10:56.491Z,0
2022-07-25T00:11:56.248Z,0
2022-07-25T00:12:56.225Z,0
2022-07-25T00:13:56.227Z,0
2022-07-25T00:14:56.227Z,0
2022-07-25T00:15:56.947Z,0
2022-07-25T00:16:56.215Z,0
2022-07-25T00:17:56.237Z,0
2022-07-25T00:18:56.211Z,0
2022-07-25T00:19:56.201Z,0
2022-07-25T00:20:56.223Z,0
2022-07-25T00:21:56.197Z,0
2022-07-25T00:22:56.439Z,0
2022-07-25T00:23:55.923Z,0
2022-07-25T00:24:55.920Z,0
2022-07-25T00:25:56.449Z,0
2022-07-25T00:26:56.166Z,0
2022-07-25T00:27:56.420Z,0
2022-07-25T00:28:56.435Z,0
2022-07-25T00:29:56.435Z,0
2022-07-25T00:30:56.440Z,0
2022-07-25T00:31:56.544Z,0
2022-07-25T00:32:56.146Z,0
2022-07-25T00:33:55.881Z,0
2022-07-25T00:34:57.559Z,0
2022-07-25T00:35:56.124Z,0
2022-07-25T00:36:56.127Z,0
2022-07-25T00:37:56.909Z,0
2022-07-25T00:38:56.393Z,0
2022-07-25T00:39:56.896Z,0
2022-07-25T00:41:02.884Z,0
2022-07-25T00:41:56.897Z,0
2022-07-25T00:42:56.631Z,0
2022-07-25T00:43:56.896Z,0
2022-07-25T00:44:56.632Z,0
2022-07-25T00:45:56.413Z,0
2022-07-25T00:46:56.839Z,0
2022-07-25T00:47:56.375Z,0
2022-07-25T00:48:57.178Z,0
2022-07-25T00:49:56.605Z,0
2022-07-25T00:50:56.367Z,0
2022-07-25T00:51:56.587Z,0
2022-07-25T00:52:56.622Z,0
2022-07-25T00:53:56.582Z,0
2022-07-25T00:54:56.597Z,0
2022-07-25T00:55:56.982Z,0
2022-07-25T00:56:56.570Z,0
2022-07-25T00:57:56.815Z,0
2022-07-25T00:58:56.567Z,0
2022-07-25T00:59:56.044Z,0
2022-07-25T01:00:56.810Z,0
2022-07-25T01:01:56.334Z,0
2022-07-25T01:02:58.350Z,0
2022-07-25T01:03:56.538Z,0
2022-07-25T01:04:56.801Z,0
2022-07-25T01:06:00.398Z,0
2022-07-25T01:06:56.789Z,0
2022-07-25T01:07:56.531Z,0
2022-07-25T01:08:56.520Z,0
2022-07-25T01:09:56.586Z,0
2022-07-25T01:10:56.766Z,0
2022-07-25T01:11:56.510Z,0
2022-07-25T01:12:56.781Z,0
2022-07-25T01:13:56.496Z,0
2022-07-25T01:14:56.742Z,0
2022-07-25T01:15:56.755Z,0
2022-07-25T01:16:57.751Z,0
2022-07-25T01:17:56.728Z,0
2022-07-25T01:18:56.479Z,0
2022-07-25T01:19:56.731Z,0
2022-07-25T01:20:56.719Z,0
2022-07-25T01:21:56.722Z,0
2022-07-25T01:22:56.719Z,0
2022-07-25T01:23:56.454Z,0
2022-07-25T01:24:57.553Z,0
2022-07-25T01:25:56.716Z,0
2022-07-25T01:26:56.701Z,0
2022-07-25T01:28:01.800Z,0
2022-07-25T01:28:56.683Z,0
2022-07-25T01:29:56.431Z,0
2022-07-25T01:30:56.749Z,0
2022-07-25T01:31:56.686Z,0
2022-07-25T01:32:56.419Z,0
2022-07-25T01:33:56.701Z,0
2022-07-25T01:35:28.229Z,0
2022-07-25T01:35:56.398Z,0
2022-07-25T01:36:56.407Z,0
2022-07-25T01:37:56.147Z,0
2022-07-25T01:39:00.932Z,0
2022-07-25T01:39:56.648Z,0
2022-07-25T01:40:56.371Z,0
2022-07-25T01:41:56.370Z,0
2022-07-25T01:42:56.122Z,0
2022-07-25T01:43:56.630Z,0
2022-07-25T01:44:56.358Z,0
2022-07-25T01:45:56.882Z,0
2022-07-25T01:46:56.780Z,0
2022-07-25T01:47:56.088Z,0
2022-07-25T01:48:56.607Z,0
2022-07-25T01:49:56.335Z,0
2022-07-25T01:50:57.080Z,0
2022-07-25T01:51:56.071Z,0
2022-07-25T01:52:56.316Z,0
2022-07-25T01:53:56.579Z,0
2022-07-25T01:54:57.195Z,0
2022-07-25T01:55:59.605Z,0
2022-07-25T01:56:56.564Z,0
2022-07-25T01:57:57.172Z,0
2022-07-25T01:58:56.549Z,0
2022-07-25T01:59:56.298Z,0
2022-07-25T02:00:56.030Z,0
2022-07-25T02:01:57.007Z,0
2022-07-25T02:02:56.291Z,0
2022-07-25T02:03:56.279Z,0
2022-07-25T02:04:56.900Z,0
2022-07-25T02:05:56.271Z,0
2022-07-25T02:06:56.521Z,0
2022-07-25T02:07:56.508Z,0
2022-07-25T02:08:57.086Z,0
2022-07-25T02:10:01.716Z,0
2022-07-25T02:10:55.738Z,0
2022-07-25T02:11:56.503Z,0
2022-07-25T02:12:56.748Z,0
2022-07-25T02:13:56.485Z,0
2022-07-25T02:14:56.477Z,0
2022-07-25T02:15:56.224Z,0
2022-07-25T02:16:56.765Z,0
2022-07-25T02:17:56.215Z,0
2022-07-25T02:18:56.218Z,0
2022-07-25T02:19:56.474Z,0
2022-07-25T02:20:55.679Z,0
2022-07-25T02:21:56.189Z,0
2022-07-25T02:22:56.457Z,0
2022-07-25T02:23:56.438Z,0
2022-07-25T02:24:56.171Z,0
2022-07-25T02:25:56.421Z,0
2022-07-25T02:26:56.425Z,0
2022-07-25T02:27:56.419Z,0
2022-07-25T02:28:56.191Z,0
2022-07-25T02:29:56.178Z,0
2022-07-25T02:30:56.478Z,0
2022-07-25T02:31:56.406Z,0
2022-07-25T02:32:56.458Z,0
2022-07-25T02:33:57.159Z,0
2022-07-25T02:34:56.383Z,0
2022-07-25T02:35:56.129Z,0
2022-07-25T02:36:56.153Z,0
2022-07-25T02:37:56.114Z,0
2022-07-25T02:38:56.369Z,0
2022-07-25T02:39:56.390Z,0
2022-07-25T02:40:56.111Z,0
2022-07-25T02:41:56.344Z,0
2022-07-25T02:42:56.356Z,0
2022-07-25T02:43:56.351Z,0
2022-07-25T02:44:56.341Z,0
2022-07-25T02:45:56.415Z,0
2022-07-25T02:46:55.827Z,0
2022-07-25T02:47:56.087Z,0
2022-07-25T02:48:56.752Z,0
2022-07-25T02:49:56.331Z,0
2022-07-25T02:50:56.064Z,4
2022-07-25T02:51:56.056Z,4
2022-07-25T02:52:55.790Z,4
2022-07-25T02:54:05.404Z,0
2022-07-25T02:54:56.829Z,0
2022-07-25T02:55:58.863Z,4
2022-07-25T02:56:56.281Z,4
2022-07-25T02:57:56.293Z,4
2022-07-25T02:58:56.428Z,4
2022-07-25T02:59:56.265Z,4
2022-07-25T03:00:56.436Z,8
2022-07-25T03:01:57.719Z,8
2022-07-25T03:02:56.251Z,8
2022-07-25T03:03:56.682Z,8
2022-07-25T03:04:56.256Z,12
2022-07-25T03:05:56.095Z,12
2022-07-25T03:06:56.239Z,16
2022-07-25T03:07:56.243Z,16
2022-07-25T03:08:56.649Z,20
2022-07-25T03:09:55.976Z,24
2022-07-25T03:10:55.964Z,24
2022-07-25T03:11:55.702Z,32
2022-07-25T03:12:56.207Z,32
2022-07-25T03:13:56.012Z,36
2022-07-25T03:14:56.196Z,44
2022-07-25T03:15:57.827Z,48
2022-07-25T03:16:56.523Z,52
2022-07-25T03:17:55.939Z,60
2022-07-25T03:18:55.949Z,64
2022-07-25T03:19:55.665Z,68
2022-07-25T03:20:56.174Z,76
2022-07-25T03:21:56.177Z,84
2022-07-25T03:22:56.366Z,96
2022-07-25T03:24:00.414Z,100
2022-07-25T03:24:56.156Z,112
2022-07-25T03:25:56.160Z,120
2022-07-25T03:26:55.899Z,132
2022-07-25T03:27:56.137Z,140
2022-07-25T03:28:56.136Z,152
2022-07-25T03:29:56.129Z,164
2022-07-25T03:30:56.133Z,172
2022-07-25T03:31:56.364Z,184
2022-07-25T03:32:56.114Z,196
2022-07-25T03:50:20.820Z,512
2022-07-25T03:51:20.304Z,556
2022-07-25T03:52:20.544Z,584
2022-07-25T03:53:20.281Z,596
2022-07-25T03:54:21.102Z,612
2022-07-25T03:55:20.801Z,636
2022-07-25T03:56:20.540Z,672
2022-07-25T03:57:20.766Z,712
2022-07-25T03:58:20.751Z,764
2022-07-25T03:59:20.743Z,812
2022-07-25T04:00:20.753Z,840
2022-07-25T04:01:21.767Z,864
2022-07-25T04:02:21.237Z,884
2022-07-25T04:03:20.463Z,924
2022-07-25T04:04:20.470Z,984
2022-07-25T04:05:20.465Z,1044
2022-07-25T04:06:20.186Z,1100
2022-07-25T04:07:20.701Z,1140
2022-07-25T04:08:20.729Z,1172
2022-07-25T04:09:20.680Z,1208
2022-07-25T04:10:20.165Z,1240
2022-07-25T04:11:20.423Z,1272
2022-07-25T04:12:20.152Z,1304
2022-07-25T04:13:20.148Z,1336
2022-07-25T04:14:20.663Z,1368
2022-07-25T04:15:20.849Z,1396
2022-07-25T04:16:30.341Z,1432
2022-07-25T04:17:22.387Z,1456
2022-07-25T04:18:34.271Z,1480
2022-07-25T04:19:21.695Z,1504
2022-07-25T04:20:20.998Z,1528
2022-07-25T04:21:20.623Z,1556
2022-07-25T04:22:20.373Z,1576
2022-07-25T04:23:20.605Z,1604
2022-07-25T04:24:20.606Z,1628
2022-07-25T04:25:20.605Z,1648
2022-07-25T04:26:20.340Z,1680
2022-07-25T04:27:20.359Z,1712
2022-07-25T04:28:20.358Z,1744
2022-07-25T04:29:20.327Z,1776
2022-07-25T04:30:31.250Z,1808
2022-07-25T04:31:20.550Z,1828
2022-07-25T04:32:27.703Z,1860
2022-07-25T04:33:20.299Z,1888
2022-07-25T04:34:20.300Z,1916
2022-07-25T04:35:20.304Z,1944
2022-07-25T04:36:20.552Z,1964
2022-07-25T04:37:20.168Z,1988
2022-07-25T04:38:20.291Z,2004
2022-07-25T04:39:20.701Z,2024
2022-07-25T04:40:20.180Z,2040
2022-07-25T04:41:20.443Z,2052
2022-07-25T04:42:20.423Z,2064
2022-07-25T04:43:20.428Z,2072
2022-07-25T04:44:20.673Z,2092
2022-07-25T04:45:22.591Z,2104
2022-07-25T04:46:20.999Z,2112
2022-07-25T04:47:20.471Z,2104
2022-07-25T04:48:20.984Z,2100
2022-07-25T04:49:21.315Z,2116
2022-07-25T04:50:26.919Z,2168
2022-07-25T04:51:20.993Z,2236
2022-07-25T04:52:20.872Z,2316
2022-07-25T04:53:20.979Z,2392
2022-07-25T04:54:20.719Z,2456
2022-07-25T04:55:20.959Z,2508
2022-07-25T04:56:20.713Z,2544
2022-07-25T04:57:20.961Z,2588
2022-07-25T04:58:20.966Z,2632
2022-07-25T04:59:20.172Z,2652
2022-07-25T05:00:22.762Z,2660
2022-07-25T05:01:21.175Z,2648
2022-07-25T05:02:21.291Z,2644
2022-07-25T05:03:20.921Z,2628
2022-07-25T05:04:20.651Z,2620
2022-07-25T05:05:28.504Z,2612
2022-07-25T05:06:21.713Z,2608
2022-07-25T05:07:21.033Z,2608
2022-07-25T05:08:20.154Z,2624
2022-07-25T05:09:20.928Z,2648
2022-07-25T05:10:20.910Z,2652
2022-07-25T05:11:20.658Z,2636
2022-07-25T05:12:20.962Z,2616
2022-07-25T05:13:23.133Z,2600
2022-07-25T05:14:23.238Z,2596
2022-07-25T05:15:20.617Z,2608
2022-07-25T05:16:20.740Z,2616
2022-07-25T05:17:20.615Z,2652
2022-07-25T05:18:20.871Z,2720
2022-07-25T05:19:20.868Z,2804
2022-07-25T05:20:20.616Z,2848
2022-07-25T05:21:21.263Z,2860
2022-07-25T05:22:23.065Z,2860
2022-07-25T05:23:20.843Z,2860
2022-07-25T05:24:20.848Z,2860
2022-07-25T05:25:20.611Z,2924
2022-07-25T05:26:20.322Z,2956
2022-07-25T05:27:20.610Z,2960
2022-07-25T05:28:20.585Z,2948
2022-07-25T05:29:20.589Z,2980
2022-07-25T05:30:20.560Z,3012
2022-07-25T05:31:20.830Z,3028
2022-07-25T05:32:20.038Z,3036
2022-07-25T05:33:20.567Z,2980
2022-07-25T05:34:20.551Z,2936
2022-07-25T05:35:20.295Z,3112
2022-07-25T05:36:20.645Z,3120
2022-07-25T05:37:20.307Z,3132
2022-07-25T05:38:20.547Z,3124
2022-07-25T05:39:20.563Z,3120
2022-07-25T05:40:20.539Z,3176
2022-07-25T05:41:20.274Z,3184
2022-07-25T05:42:20.807Z,3192
2022-07-25T05:43:20.520Z,3196
2022-07-25T05:44:20.283Z,3196
2022-07-25T05:45:20.516Z,3224
2022-07-25T05:46:20.816Z,3236
2022-07-25T05:47:20.654Z,3248
2022-07-25T05:48:20.240Z,3268
2022-07-25T05:49:20.881Z,3280
2022-07-25T05:50:20.503Z,3300
2022-07-25T05:51:20.750Z,3312
2022-07-25T05:52:20.491Z,3320
2022-07-25T05:53:20.236Z,3336
2022-07-25T05:54:19.980Z,3340
2022-07-25T05:55:20.763Z,3352
2022-07-25T05:56:20.749Z,3372
2022-07-25T05:57:20.730Z,3392
2022-07-25T05:58:21.561Z,3400
2022-07-25T05:59:20.742Z,3412
2022-07-25T06:00:20.221Z,3428
2022-07-25T06:01:20.729Z,3436
2022-07-25T06:02:21.300Z,3444
2022-07-25T06:03:21.289Z,3448
2022-07-25T06:04:24.119Z,3440
2022-07-25T06:05:20.707Z,3404
2022-07-25T06:06:20.719Z,3456
2022-07-25T06:07:24.201Z,3472
2022-07-25T06:08:20.790Z,3480
2022-07-25T06:09:20.197Z,3488
2022-07-25T06:10:20.454Z,3496
2022-07-25T06:11:20.978Z,3512
2022-07-25T06:12:21.275Z,3524
2022-07-25T06:13:25.707Z,3544
2022-07-25T06:14:24.755Z,3536
2022-07-25T06:15:32.255Z,3528
2022-07-25T06:16:20.647Z,3568
2022-07-25T06:17:20.709Z,3588
2022-07-25T06:18:20.674Z,3600
2022-07-25T06:19:19.924Z,3612
2022-07-25T06:20:20.680Z,3628
2022-07-25T06:21:20.418Z,3644
2022-07-25T06:22:21.735Z,3660
2022-07-25T06:23:20.413Z,3684
2022-07-25T06:24:20.419Z,3700
2022-07-25T06:25:20.419Z,3708
2022-07-25T06:26:22.328Z,3724
2022-07-25T06:27:31.948Z,3728
2022-07-25T06:28:25.274Z,3740
2022-07-25T06:29:20.673Z,3748
2022-07-25T06:30:27.336Z,3756
2022-07-25T06:31:20.385Z,3768
2022-07-25T06:32:20.661Z,3776
2022-07-25T06:33:20.652Z,3784
2022-07-25T06:34:20.653Z,3792
2022-07-25T06:35:20.464Z,3788
2022-07-25T06:36:20.398Z,3800
2022-07-25T06:37:20.398Z,3816
2022-07-25T06:38:20.638Z,3832
2022-07-25T06:39:21.665Z,3844
2022-07-25T06:40:20.649Z,3912
2022-07-25T06:41:20.384Z,3940
2022-07-25T06:42:21.259Z,3940
2022-07-25T06:43:20.160Z,3972
2022-07-25T06:44:20.391Z,4036
2022-07-25T06:45:20.138Z,4152
2022-07-25T06:46:20.604Z,5200
2022-07-25T06:47:20.639Z,10412
2022-07-25T06:48:20.386Z,10880
2022-07-25T06:49:20.274Z,19456
2022-07-25T06:50:23.836Z,33120
2022-07-25T06:51:20.140Z,30880
2022-07-25T06:52:20.113Z,28192
2022-07-25T06:53:20.632Z,32832
2022-07-25T06:54:20.136Z,28960
2022-07-25T06:55:20.630Z,22560
2022-07-25T06:56:24.422Z,23776
2022-07-25T06:57:20.619Z,30880
2022-07-25T06:58:24.893Z,38112
2022-07-25T06:59:20.708Z,39168
2022-07-25T07:00:20.368Z,36576
2022-07-25T07:01:20.758Z,37120
2022-07-25T07:02:20.153Z,38272
2022-07-25T07:03:20.723Z,38272
2022-07-25T07:04:20.162Z,37280
2022-07-25T07:05:21.350Z,37376
2022-07-25T07:06:20.653Z,37440
2022-07-25T07:07:20.395Z,36544
2022-07-25T07:08:20.741Z,36896
2022-07-25T07:09:20.173Z,37120
2022-07-25T07:10:20.668Z,39552
2022-07-25T07:11:20.657Z,40800
2022-07-25T07:12:20.649Z,41120
2022-07-25T07:13:26.957Z,41280
2022-07-25T07:14:20.666Z,43808
2022-07-25T07:15:20.671Z,42080
2022-07-25T07:16:20.809Z,39872
2022-07-25T07:17:20.433Z,41248
2022-07-25T07:18:20.197Z,44000
2022-07-25T07:19:20.439Z,44576
2022-07-25T07:20:20.976Z,42848
2022-07-25T07:21:28.421Z,43680
2022-07-25T07:22:20.858Z,43680
2022-07-25T07:23:24.145Z,42656
2022-07-25T07:24:31.186Z,42624
2022-07-25T07:25:22.119Z,44064
2022-07-25T07:26:20.485Z,45024
2022-07-25T07:27:24.011Z,44800
2022-07-25T07:28:20.267Z,46528
2022-07-25T07:29:20.269Z,47392
2022-07-25T07:30:44.376Z,46048
2022-07-25T07:31:33.022Z,47104
2022-07-25T07:32:32.428Z,45408
2022-07-25T07:33:32.681Z,46496
2022-07-25T07:34:32.957Z,48256
2022-07-25T07:35:40.784Z,48480
2022-07-25T07:36:32.715Z,47552
2022-07-25T07:37:45.645Z,46048
2022-07-25T07:38:32.994Z,47776
2022-07-25T07:39:32.739Z,50944
2022-07-25T07:40:32.238Z,52992
2022-07-25T07:41:34.810Z,52800
2022-07-25T07:42:32.502Z,54304
2022-07-25T07:43:37.364Z,53728
2022-07-25T07:44:32.531Z,51168
2022-07-25T07:45:33.051Z,49920
2022-07-25T07:46:33.399Z,50336
2022-07-25T07:47:32.561Z,39072
2022-07-25T07:48:32.795Z,18112
2022-07-25T07:49:39.333Z,7712
2022-07-25T07:50:32.889Z,6644
2022-07-25T07:51:32.609Z,6036
2022-07-25T07:52:33.126Z,5672
2022-07-25T07:53:32.873Z,5416
2022-07-25T07:54:33.131Z,5260
2022-07-25T07:55:33.788Z,5124
2022-07-25T07:56:34.275Z,5020
2022-07-25T07:57:33.547Z,4952
2022-07-25T07:58:33.307Z,4904
2022-07-25T07:59:33.566Z,4864
2022-07-25T08:00:33.581Z,4848
2022-07-25T08:01:33.911Z,4832
2022-07-25T08:02:34.153Z,4804
2022-07-25T08:03:33.552Z,4776
2022-07-25T08:04:33.370Z,4752
2022-07-25T08:05:33.639Z,4736
2022-07-25T08:06:33.647Z,4732
2022-07-25T08:07:33.394Z,4728
2022-07-25T08:08:38.205Z,4728
2022-07-25T08:09:33.405Z,4720
2022-07-25T08:10:33.945Z,4712
2022-07-25T08:11:33.685Z,4708
2022-07-25T08:12:34.235Z,4712
2022-07-25T08:13:36.011Z,4700
2022-07-25T08:14:33.828Z,4680
2022-07-25T08:15:33.987Z,4668
2022-07-25T08:16:33.828Z,4664
2022-07-25T08:17:36.923Z,4672
2022-07-25T08:18:34.003Z,4664
2022-07-25T08:19:33.604Z,4664
2022-07-25T08:20:45.569Z,4660
2022-07-25T08:21:34.023Z,4656
2022-07-25T08:22:33.765Z,4664
2022-07-25T08:23:33.772Z,4668
2022-07-25T08:24:34.290Z,4676
2022-07-25T08:25:33.534Z,4660
2022-07-25T08:26:33.799Z,4660
2022-07-25T08:27:33.902Z,4660
2022-07-25T08:28:33.817Z,4648
2022-07-25T08:29:35.308Z,4636
2022-07-25T08:30:33.372Z,4656
2022-07-25T08:31:34.144Z,4656
2022-07-25T08:32:33.946Z,4652
2022-07-25T08:33:34.100Z,4656
2022-07-25T08:34:34.431Z,4628
2022-07-25T08:35:33.847Z,4620
2022-07-25T08:36:39.231Z,4576
2022-07-25T08:37:33.865Z,4532
2022-07-25T08:38:33.618Z,4512
2022-07-25T08:39:34.138Z,4512
2022-07-25T08:40:34.146Z,4484
2022-07-25T08:41:33.717Z,4456
2022-07-25T08:42:33.631Z,4448
2022-07-25T08:43:33.911Z,4420
2022-07-25T08:44:34.178Z,4396
2022-07-25T08:45:33.921Z,4388
2022-07-25T08:46:34.577Z,4404
2022-07-25T08:47:34.171Z,4372
2022-07-25T08:48:33.980Z,4344
2022-07-25T08:49:34.557Z,4336
2022-07-25T08:50:34.182Z,4324
2022-07-25T08:51:33.434Z,4304
2022-07-25T08:52:33.690Z,4276
2022-07-25T08:53:42.707Z,4248
2022-07-25T08:54:33.518Z,4236
2022-07-25T08:55:33.700Z,4220
2022-07-25T08:56:34.065Z,4220
2022-07-25T08:57:34.215Z,4212
2022-07-25T08:58:33.967Z,4196
2022-07-25T08:59:33.980Z,4208
2022-07-25T09:00:33.985Z,4200
2022-07-25T09:01:39.824Z,4188
2022-07-25T09:02:34.152Z,4168
2022-07-25T09:03:34.160Z,4144
2022-07-25T09:04:34.012Z,4120
2022-07-25T09:05:33.779Z,4104
2022-07-25T09:06:34.094Z,4116
2022-07-25T09:07:34.347Z,4112
2022-07-25T09:08:34.102Z,4100
2022-07-25T09:09:33.845Z,4096
2022-07-25T09:10:34.132Z,4080
2022-07-25T09:11:34.133Z,4092
2022-07-25T09:12:34.118Z,4096
2022-07-25T09:13:34.385Z,4088
2022-07-25T09:14:34.820Z,4064
2022-07-25T09:15:37.665Z,4048
2022-07-25T09:16:35.008Z,4080
2022-07-25T09:17:35.641Z,4080
2022-07-25T09:18:33.879Z,4064
2022-07-25T09:19:34.401Z,4044
2022-07-25T09:20:34.153Z,4024
2022-07-25T09:21:34.161Z,4012
2022-07-25T09:22:33.903Z,4012
2022-07-25T09:23:34.444Z,4016
2022-07-25T09:24:33.916Z,4004
2022-07-25T09:25:33.918Z,4012
2022-07-25T09:26:35.873Z,4028
2022-07-25T09:27:33.926Z,4020
2022-07-25T09:28:34.468Z,4012
2022-07-25T09:29:34.203Z,4000
2022-07-25T09:30:34.214Z,3972
2022-07-25T09:31:35.021Z,3976
2022-07-25T09:32:34.211Z,3968
2022-07-25T09:33:33.962Z,3940
2022-07-25T09:34:34.222Z,3916
2022-07-25T09:35:34.497Z,3892
2022-07-25T09:36:33.981Z,3876
2022-07-25T09:37:33.998Z,3836
2022-07-25T09:38:34.251Z,3812
2022-07-25T09:39:34.397Z,3808
2022-07-25T09:40:33.999Z,3800
2022-07-25T09:41:34.255Z,3804
2022-07-25T09:42:33.755Z,3800
2022-07-25T09:43:34.267Z,3772
2022-07-25T09:44:34.276Z,3792
2022-07-25T09:45:38.445Z,3796
2022-07-25T09:46:34.687Z,3772
2022-07-25T09:47:34.286Z,3764
2022-07-25T09:48:34.838Z,3752
2022-07-25T09:49:34.563Z,3704
2022-07-25T09:50:33.785Z,3672
2022-07-25T09:51:34.551Z,3672
2022-07-25T09:52:34.581Z,3692
2022-07-25T09:53:34.314Z,3688
2022-07-25T09:54:33.814Z,3712
2022-07-25T09:55:34.081Z,3716
2022-07-25T09:56:34.318Z,3724
2022-07-25T09:57:34.337Z,3712
2022-07-25T09:58:34.339Z,3708
2022-07-25T09:59:34.597Z,3672
2022-07-25T10:00:34.349Z,3668
2022-07-25T10:01:35.041Z,3668
2022-07-25T10:02:34.672Z,3700
2022-07-25T10:03:34.361Z,3732
2022-07-25T10:04:34.357Z,3708
2022-07-25T10:05:34.369Z,3700
2022-07-25T10:06:34.384Z,3704
2022-07-25T10:07:38.420Z,3724
2022-07-25T10:08:34.757Z,3748
2022-07-25T10:09:34.541Z,3752
2022-07-25T10:10:34.285Z,3732
2022-07-25T10:11:34.524Z,3708
2022-07-25T10:12:34.780Z,3680
2022-07-25T10:13:34.813Z,3676
2022-07-25T10:14:34.792Z,3680
2022-07-25T10:15:34.803Z,3656
2022-07-25T10:16:34.903Z,3668
2022-07-25T10:17:34.804Z,3672
2022-07-25T10:18:34.835Z,3692
2022-07-25T10:19:34.860Z,3704
2022-07-25T10:20:34.815Z,3680
2022-07-25T10:21:35.838Z,3640
2022-07-25T10:23:02.728Z,3608
2022-07-25T10:23:34.578Z,3604
2022-07-25T10:24:34.378Z,3588
2022-07-25T10:25:34.365Z,3568
2022-07-25T10:26:34.342Z,3556
2022-07-25T10:27:35.503Z,3588
2022-07-25T10:28:34.355Z,3620
2022-07-25T10:29:34.889Z,3636
2022-07-25T10:30:35.351Z,3620
2022-07-25T10:31:34.653Z,3612
2022-07-25T10:32:34.620Z,3584
2022-07-25T10:33:34.703Z,3548
2022-07-25T10:34:35.978Z,3524
2022-07-25T10:35:34.644Z,3548
2022-07-25T10:36:34.474Z,3568
2022-07-25T10:37:34.649Z,3592
2022-07-25T10:38:34.646Z,3576
2022-07-25T10:39:34.648Z,3576
2022-07-25T10:40:34.921Z,3544
2022-07-25T10:41:34.673Z,3476
2022-07-25T10:42:34.673Z,3440
2022-07-25T10:43:34.934Z,3424
2022-07-25T10:44:34.688Z,3420
2022-07-25T10:45:40.511Z,3412
2022-07-25T10:46:34.676Z,3388
2022-07-25T10:47:34.443Z,3400
2022-07-25T10:48:34.750Z,3400
2022-07-25T10:49:46.411Z,3428
2022-07-25T10:51:01.755Z,3432
2022-07-25T10:51:38.283Z,3436
2022-07-25T10:52:34.843Z,3412
2022-07-25T10:53:34.473Z,3440
2022-07-25T10:54:34.483Z,3428
2022-07-25T10:55:34.486Z,3372
2022-07-25T10:56:34.497Z,3320
2022-07-25T10:58:15.483Z,3312
2022-07-25T10:58:35.015Z,3324
2022-07-25T10:59:35.032Z,3356
2022-07-25T11:00:34.260Z,3368
2022-07-25T11:01:35.214Z,3332
2022-07-25T11:02:35.153Z,3300
2022-07-25T11:03:34.528Z,3292
2022-07-25T11:04:34.550Z,3300
2022-07-25T11:05:35.071Z,3280
2022-07-25T11:06:35.063Z,3272
2022-07-25T11:07:34.804Z,3256
2022-07-25T11:08:34.560Z,3260
2022-07-25T11:09:35.581Z,3272
2022-07-25T11:10:34.827Z,3268
2022-07-25T11:11:34.831Z,3256
2022-07-25T11:12:34.842Z,3268
2022-07-25T11:13:34.323Z,3288
2022-07-25T11:14:35.105Z,3284
2022-07-25T11:15:34.844Z,3264
2022-07-25T11:16:35.546Z,3208
2022-07-25T11:17:34.615Z,3112
2022-07-25T11:18:34.863Z,3132
2022-07-25T11:19:35.149Z,3120
2022-07-25T11:20:35.196Z,3092
2022-07-25T11:21:35.134Z,3168
2022-07-25T11:22:34.900Z,3208
2022-07-25T11:23:34.644Z,3216
2022-07-25T11:24:35.161Z,3244
2022-07-25T11:25:35.154Z,3244
2022-07-25T11:26:34.909Z,3232
2022-07-25T11:27:34.938Z,3208
2022-07-25T11:28:34.929Z,3212
2022-07-25T11:29:34.686Z,3208
2022-07-25T11:30:34.948Z,3216
2022-07-25T11:31:35.260Z,3224
2022-07-25T11:32:35.563Z,3228
2022-07-25T11:33:38.541Z,3232
2022-07-25T11:34:39.460Z,3220
2022-07-25T11:35:34.706Z,3224
2022-07-25T11:36:35.141Z,3240
2022-07-25T11:37:35.588Z,3248
2022-07-25T11:38:35.230Z,3232
2022-07-25T11:39:34.998Z,3216
2022-07-25T11:40:34.484Z,3216
2022-07-25T11:41:34.491Z,3204
2022-07-25T11:42:34.743Z,3192
2022-07-25T11:43:34.488Z,3200
2022-07-25T11:44:34.749Z,3192
2022-07-25T11:45:35.694Z,3152
2022-07-25T11:46:35.359Z,3160
2022-07-25T11:47:35.137Z,3184
2022-07-25T11:48:35.023Z,3180
2022-07-25T11:49:35.308Z,3168
2022-07-25T11:50:35.040Z,3164
2022-07-25T11:51:35.058Z,3160
2022-07-25T11:52:35.103Z,3156
2022-07-25T11:53:35.058Z,3120
2022-07-25T11:54:34.807Z,3072
2022-07-25T11:55:35.077Z,3080
2022-07-25T11:56:51.066Z,3060
2022-07-25T11:57:34.832Z,3056
2022-07-25T11:58:34.843Z,3044
2022-07-25T11:59:35.650Z,3036
2022-07-25T12:00:35.089Z,3016
2022-07-25T12:01:34.846Z,2996
2022-07-25T12:02:36.330Z,2992
2022-07-25T12:03:35.695Z,2972
2022-07-25T12:04:35.128Z,2964
2022-07-25T12:05:35.133Z,2956
2022-07-25T12:06:35.132Z,2956
2022-07-25T12:07:34.914Z,2988
2022-07-25T12:08:35.148Z,3004
2022-07-25T12:09:35.417Z,3012
2022-07-25T12:10:35.152Z,3020
2022-07-25T12:11:35.193Z,3036
2022-07-25T12:12:35.173Z,3060
2022-07-25T12:13:35.453Z,3056
2022-07-25T12:14:41.346Z,3036
2022-07-25T12:15:34.955Z,3016
2022-07-25T12:16:35.572Z,2976
2022-07-25T12:17:35.201Z,2956
2022-07-25T12:18:34.952Z,2936
2022-07-25T12:19:35.216Z,2960
2022-07-25T12:20:35.210Z,2980
2022-07-25T12:21:35.167Z,3012
2022-07-25T12:22:35.481Z,3016
2022-07-25T12:23:35.225Z,3008
2022-07-25T12:24:35.247Z,3004
2022-07-25T12:25:38.043Z,3004
2022-07-25T12:26:35.250Z,3004
2022-07-25T12:27:35.263Z,2976
2022-07-25T12:28:35.548Z,2960
2022-07-25T12:29:35.517Z,2940
2022-07-25T12:30:35.570Z,2932
2022-07-25T12:31:35.423Z,2932
2022-07-25T12:32:35.288Z,2932
2022-07-25T12:33:35.545Z,2936
2022-07-25T12:34:35.566Z,2936
2022-07-25T12:35:35.316Z,2940
2022-07-25T12:36:35.577Z,2936
2022-07-25T12:37:36.275Z,2936
2022-07-25T12:38:35.099Z,2916
2022-07-25T12:39:35.582Z,2920
2022-07-25T12:40:35.595Z,2940
2022-07-25T12:41:35.090Z,2952
2022-07-25T12:42:35.103Z,2964
2022-07-25T12:43:35.097Z,2972
2022-07-25T12:44:36.367Z,2976
2022-07-25T12:45:36.465Z,2972
2022-07-25T12:46:36.433Z,2972
2022-07-25T12:47:35.840Z,2972
2022-07-25T12:48:36.475Z,2968
2022-07-25T12:49:36.117Z,2960
2022-07-25T12:50:35.606Z,2964
2022-07-25T12:51:35.894Z,2988
2022-07-25T12:52:36.134Z,3000
2022-07-25T12:53:42.153Z,3008
2022-07-25T12:54:37.104Z,3000
2022-07-25T12:55:35.895Z,3004
2022-07-25T12:56:36.162Z,3008
2022-07-25T12:57:35.913Z,3000
2022-07-25T12:58:36.158Z,2984
2022-07-25T12:59:35.910Z,2984
2022-07-25T13:00:35.943Z,2988
2022-07-25T13:01:36.199Z,2980
2022-07-25T13:02:36.459Z,2988
2022-07-25T13:03:35.677Z,3000
2022-07-25T13:04:36.193Z,3004
2022-07-25T13:05:36.210Z,3012
2022-07-25T13:06:41.437Z,3008
2022-07-25T13:07:35.954Z,3000
2022-07-25T13:08:35.966Z,2988
2022-07-25T13:09:36.493Z,2968
2022-07-25T13:10:36.497Z,2964
2022-07-25T13:11:36.253Z,2964
2022-07-25T13:12:36.524Z,2980
2022-07-25T13:13:36.576Z,2980
2022-07-25T13:14:36.264Z,2992
2022-07-25T13:15:36.017Z,2992
2022-07-25T13:16:36.810Z,2996
2022-07-25T13:17:35.777Z,3016
2022-07-25T13:18:36.379Z,3024
2022-07-25T13:19:36.297Z,3024
2022-07-25T13:20:36.568Z,3032
2022-07-25T13:21:36.553Z,3068
2022-07-25T13:22:36.311Z,3072
2022-07-25T13:23:36.324Z,3060
2022-07-25T13:24:36.073Z,3056
2022-07-25T13:25:36.360Z,3068
2022-07-25T13:26:36.087Z,3060
2022-07-25T13:27:36.346Z,3048
2022-07-25T13:28:36.352Z,3036
2022-07-25T13:29:37.057Z,3036
2022-07-25T13:30:36.989Z,3032
2022-07-25T13:31:37.496Z,3048
2022-07-25T13:32:36.428Z,3048
2022-07-25T13:33:36.383Z,3060
2022-07-25T13:34:36.138Z,3048
2022-07-25T13:35:45.373Z,3040
2022-07-25T13:36:36.395Z,3036
2022-07-25T13:37:36.405Z,3048
2022-07-25T13:38:37.172Z,3040
2022-07-25T13:39:36.416Z,3024
2022-07-25T13:40:36.424Z,3020
2022-07-25T13:41:36.755Z,3024
2022-07-25T13:42:36.178Z,3016
2022-07-25T13:43:36.228Z,3012
2022-07-25T13:44:36.189Z,3012
2022-07-25T13:45:36.457Z,3024
2022-07-25T13:46:36.713Z,3028
2022-07-25T13:47:37.775Z,3036
2022-07-25T13:48:38.849Z,3052
2022-07-25T13:49:36.956Z,3048
2022-07-25T13:50:36.599Z,3056
2022-07-25T13:51:35.997Z,3060
2022-07-25T13:52:36.526Z,3048
2022-07-25T13:53:37.845Z,3056